Pagina principale
METAR-TAF:

METAR-TAF

Aeroporti :

Ahvaz, Iran

latitudine: 31-20N, longitudine: 048-40E, altezza: 20 m

Osservazione

Il bollettino è stato emesso 17 minuti fa, alle 17:00 UTC
Vento 6 kt da ovest/nord-ovest
Temperature 40°C
Umidità 13%
Pressione 1002 hPa
Visibilità 10 km o più
nessuna nube inferiore a 1500 m e nessun cumulonembo

METAR: OIAW 051700Z 29006KT CAVOK 40/06 Q1002

Ora: 21:47 (17:17 UTC)

Previsione

Il bollettino è stato emesso 6 ore e 2 minuti fa, alle 11:15 UTC
Previsione valida dal 05 alle 12 UTC al 06 alle 18 UTC
Vento 12 kt da ovest/nord-ovest
Visibilità: 7000 m
Temporaneamente
dal 05 alle 12 UTC al 05 alle 18 UTC
Vento 18 kt da ovest/nord-ovest
Temporaneamente
dal 06 alle 09 UTC al 06 alle 18 UTC
Vento 22 kt da ovest/nord-ovest
Visibilità: 4000 m
sabbia

TAF: OIAW 051115Z 0512/0618 29012KT 7000 NSC TEMPO 0512/0518 29018KT TEMPO 0609/0618 29022KT 4000 SA

Osservazioni e previsioni meteorologiche di più di 4000 aeroporti (messaggi METAR e TAF).

Le stazioni disponibili sono rappresentate dai dischi gialli e rossi sulla carta.

Puntare il mouse per vedere il nome della stazione.

Clicca sopra per visualizzare le osservazioni e previsioni meteorologiche.

Per cambiare la mappa : fare clic sui pulsanti verdi con una croce nera per ingrandire, il pulsante verde con un trattino per diminuire, o sulla freccia verde per le mappe adiacenti.


METAR-TAF: